createdAt,value
2023-01-21T00:01:14.784Z,2.54
2023-01-21T00:03:42.473Z,2.52
2023-01-21T00:06:10.411Z,2.51
2023-01-21T00:08:37.552Z,2.47
2023-01-21T00:11:05.723Z,2.44
2023-01-21T00:13:35.618Z,2.43
2023-01-21T00:16:04.205Z,2.40
2023-01-21T00:18:31.785Z,2.35
2023-01-21T00:20:58.933Z,2.29
2023-01-21T00:23:26.500Z,2.23
2023-01-21T00:25:59.890Z,2.16
2023-01-21T00:28:28.687Z,2.09
2023-01-21T00:30:59.568Z,2.04
2023-01-21T00:33:27.216Z,1.97
2023-01-21T00:36:01.653Z,1.92
2023-01-21T00:38:29.881Z,1.87
2023-01-21T00:41:08.750Z,1.82
2023-01-21T00:43:36.468Z,1.75
2023-01-21T00:46:03.744Z,1.71
2023-01-21T00:48:31.589Z,1.67
2023-01-21T00:51:00.092Z,1.62
2023-01-21T00:53:28.241Z,1.59
2023-01-21T00:55:59.614Z,1.56
2023-01-21T00:58:27.246Z,1.54
2023-01-21T01:01:21.559Z,1.52
2023-01-21T01:03:49.954Z,1.49
2023-01-21T01:06:19.863Z,1.48
2023-01-21T01:08:48.980Z,1.47
2023-01-21T01:11:17.713Z,1.46
2023-01-21T01:13:44.667Z,1.45
2023-01-21T01:16:15.126Z,1.43
2023-01-21T01:18:43.063Z,1.42
2023-01-21T01:21:13.592Z,1.39
2023-01-21T01:23:40.867Z,1.36
2023-01-21T01:26:11.593Z,1.34
2023-01-21T01:28:39.234Z,1.31
2023-01-21T01:31:08.552Z,1.28
2023-01-21T01:33:35.479Z,1.25
2023-01-21T01:36:05.805Z,1.24
2023-01-21T01:38:34.348Z,1.23
2023-01-21T01:41:01.641Z,1.22
2023-01-21T01:43:53.814Z,1.20
2023-01-21T01:46:21.690Z,1.20
2023-01-21T01:49:01.412Z,1.18
2023-01-21T01:51:42.777Z,1.16
2023-01-21T01:54:12.998Z,1.14
2023-01-21T01:56:42.916Z,1.12
2023-01-21T01:59:10.782Z,1.08
2023-01-21T02:01:38.551Z,1.06
2023-01-21T02:04:10.718Z,1.03
2023-01-21T02:06:39.300Z,0.99
2023-01-21T02:09:06.138Z,0.95
2023-01-21T02:11:35.095Z,0.91
2023-01-21T02:14:03.819Z,0.88
2023-01-21T02:17:05.580Z,0.85
2023-01-21T02:19:35.701Z,0.81
2023-01-21T02:22:15.958Z,0.79
2023-01-21T02:25:04.612Z,0.76
2023-01-21T02:27:58.079Z,0.76
2023-01-21T02:31:06.366Z,0.75
2023-01-21T02:33:53.318Z,0.74
2023-01-21T02:36:20.463Z,0.73
2023-01-21T02:39:02.389Z,0.72
2023-01-21T02:41:32.066Z,0.71
2023-01-21T02:44:04.746Z,0.71
2023-01-21T02:46:58.814Z,0.70
2023-01-21T02:49:35.810Z,0.69
2023-01-21T02:52:02.910Z,0.67
2023-01-21T02:54:38.913Z,0.65
2023-01-21T02:57:08.843Z,0.63
2023-01-21T02:59:38.692Z,0.60
2023-01-21T03:02:27.196Z,0.57
2023-01-21T03:05:04.392Z,0.55
2023-01-21T03:07:35.016Z,0.54
2023-01-21T03:10:36.475Z,0.53
2023-01-21T03:13:06.497Z,0.51
2023-01-21T03:15:57.432Z,0.50
2023-01-21T03:18:33.827Z,0.49
2023-01-21T03:21:08.302Z,0.48
2023-01-21T03:23:39.225Z,0.46
2023-01-21T03:26:08.815Z,0.46
2023-01-21T03:28:43.556Z,0.46
2023-01-21T03:31:17.270Z,0.46
2023-01-21T03:33:49.598Z,0.45
2023-01-21T03:36:44.444Z,0.45
2023-01-21T03:39:34.213Z,0.46
2023-01-21T03:42:02.490Z,0.45
2023-01-21T03:44:29.538Z,0.44
2023-01-21T03:47:08.369Z,0.41
2023-01-21T03:49:43.499Z,0.39
2023-01-21T03:52:13.424Z,0.36
2023-01-21T03:54:40.785Z,0.31
2023-01-21T03:57:07.615Z,0.26
2023-01-21T03:59:34.567Z,0.23
2023-01-21T04:02:01.438Z,0.22
2023-01-21T04:04:28.558Z,0.20
2023-01-21T04:06:55.600Z,0.21
2023-01-21T04:09:22.647Z,0.20
2023-01-21T04:11:50.208Z,0.20
2023-01-21T04:14:17.051Z,0.21
2023-01-21T04:16:44.235Z,0.20
2023-01-21T04:19:11.353Z,0.21
2023-01-21T04:21:38.199Z,0.22
2023-01-21T04:24:05.754Z,0.22
2023-01-21T04:26:32.495Z,0.22
2023-01-21T04:28:59.405Z,0.23
2023-01-21T04:31:26.665Z,0.23
2023-01-21T04:33:53.275Z,0.20
2023-01-21T04:36:20.692Z,0.17
2023-01-21T04:38:47.633Z,0.14
2023-01-21T04:41:14.376Z,0.10
2023-01-21T04:43:41.333Z,0.06
2023-01-21T04:46:08.879Z,0.03
2023-01-21T04:48:36.063Z,-0.00
2023-01-21T04:51:03.429Z,-0.02
2023-01-21T04:53:30.433Z,-0.04
2023-01-21T04:55:57.479Z,-0.04
2023-01-21T04:58:24.568Z,-0.05
2023-01-21T05:00:53.227Z,-0.04
2023-01-21T05:03:21.087Z,-0.04
2023-01-21T05:05:48.232Z,-0.04
2023-01-21T05:08:15.076Z,-0.04
2023-01-21T05:10:41.917Z,-0.04
2023-01-21T05:13:08.659Z,-0.03
2023-01-21T05:15:35.458Z,-0.03
2023-01-21T05:18:02.260Z,-0.02
2023-01-21T05:20:29.083Z,-0.01
2023-01-21T05:22:56.144Z,-0.02
2023-01-21T05:25:23.284Z,-0.04
2023-01-21T05:27:52.488Z,-0.05
2023-01-21T05:30:19.642Z,-0.09
2023-01-21T05:32:50.264Z,-0.12
2023-01-21T05:35:19.771Z,-0.17
2023-01-21T05:37:47.642Z,-0.23
2023-01-21T05:40:16.167Z,-0.28
2023-01-21T05:42:43.592Z,-0.35
2023-01-21T05:45:12.262Z,-0.41
2023-01-21T05:47:39.621Z,-0.46
2023-01-21T05:50:07.794Z,-0.49
2023-01-21T05:52:35.355Z,-0.50
2023-01-21T05:55:03.054Z,-0.51
2023-01-21T05:57:31.099Z,-0.52
2023-01-21T05:59:58.443Z,-0.52
2023-01-21T06:02:26.253Z,-0.51
2023-01-21T06:04:53.299Z,-0.50
2023-01-21T06:07:20.305Z,-0.46
2023-01-21T06:09:47.246Z,-0.42
2023-01-21T06:12:14.094Z,-0.36
2023-01-21T06:14:41.038Z,-0.32
2023-01-21T06:17:07.777Z,-0.26
2023-01-21T06:19:34.824Z,-0.16
2023-01-21T06:22:01.973Z,-0.09
2023-01-21T06:24:29.536Z,-0.05
2023-01-21T06:26:57.405Z,-0.03
2023-01-21T06:29:24.448Z,0.02
2023-01-21T06:31:51.664Z,0.08
2023-01-21T06:34:18.343Z,0.12
2023-01-21T06:36:45.189Z,0.16
2023-01-21T06:39:12.029Z,0.21
2023-01-21T06:41:39.175Z,0.27
2023-01-21T06:44:06.533Z,0.33
2023-01-21T06:46:33.935Z,0.39
2023-01-21T06:49:01.041Z,0.45
2023-01-21T06:51:28.397Z,0.58
2023-01-21T06:53:55.234Z,0.81
2023-01-21T06:56:22.404Z,1.02
2023-01-21T06:58:50.203Z,1.30
2023-01-21T07:01:17.263Z,1.53
2023-01-21T07:03:44.389Z,1.73
2023-01-21T07:06:11.398Z,1.95
2023-01-21T07:08:38.247Z,2.18
2023-01-21T07:11:05.396Z,2.49
2023-01-21T07:13:32.232Z,2.74
2023-01-21T07:16:00.469Z,2.96
2023-01-21T07:18:27.658Z,3.26
2023-01-21T07:20:54.316Z,3.55
2023-01-21T07:23:22.330Z,3.64
2023-01-21T07:25:49.945Z,3.61
2023-01-21T07:28:16.994Z,3.58
2023-01-21T07:30:43.964Z,3.72
2023-01-21T07:33:10.987Z,3.82
2023-01-21T07:35:38.735Z,3.79
2023-01-21T07:38:06.196Z,3.75
2023-01-21T07:40:33.544Z,3.77
2023-01-21T07:43:00.718Z,3.80
2023-01-21T07:45:27.746Z,3.90
2023-01-21T07:47:54.608Z,4.09
2023-01-21T07:50:21.909Z,4.32
2023-01-21T07:52:48.927Z,4.45
2023-01-21T07:55:16.098Z,4.48
2023-01-21T07:57:43.368Z,4.48
2023-01-21T08:00:10.953Z,4.51
2023-01-21T08:02:40.795Z,4.62
2023-01-21T08:05:09.560Z,4.76
2023-01-21T08:07:36.808Z,4.87
2023-01-21T08:10:03.576Z,4.88
2023-01-21T08:12:30.396Z,4.85
2023-01-21T08:14:57.179Z,4.87
2023-01-21T08:17:24.082Z,4.87
2023-01-21T08:19:50.925Z,4.96
2023-01-21T08:22:18.073Z,5.10
2023-01-21T08:24:45.202Z,5.26
2023-01-21T08:27:13.306Z,5.41
2023-01-21T08:29:40.059Z,5.66
2023-01-21T08:32:07.169Z,5.76
2023-01-21T08:34:34.103Z,5.91
2023-01-21T08:37:03.843Z,6.18
2023-01-21T08:39:31.099Z,6.50
2023-01-21T08:41:58.453Z,7.08
2023-01-21T08:44:25.209Z,7.60
2023-01-21T08:46:52.651Z,8.08
2023-01-21T08:49:19.598Z,8.34
2023-01-21T08:51:47.257Z,8.36
2023-01-21T08:54:14.845Z,8.50
2023-01-21T08:56:42.069Z,8.74
2023-01-21T08:59:09.118Z,8.98
2023-01-21T09:01:40.472Z,9.06
2023-01-21T09:04:08.960Z,8.98
2023-01-21T09:06:36.408Z,9.01
2023-01-21T09:09:03.965Z,9.01
2023-01-21T09:11:30.794Z,9.16
2023-01-21T09:14:02.773Z,9.27
2023-01-21T09:16:33.986Z,9.35
2023-01-21T09:19:01.678Z,9.46
2023-01-21T09:21:33.906Z,9.46
2023-01-21T09:24:01.103Z,9.48
2023-01-21T09:26:28.154Z,9.41
2023-01-21T09:29:00.302Z,9.53
2023-01-21T09:31:29.443Z,9.74
2023-01-21T09:33:59.429Z,9.87
2023-01-21T09:36:29.522Z,9.99
2023-01-21T09:38:56.814Z,10.08
2023-01-21T09:41:33.797Z,10.02
2023-01-21T09:44:15.833Z,9.87
2023-01-21T09:46:45.702Z,9.70
2023-01-21T09:49:18.069Z,9.61
2023-01-21T09:52:00.887Z,9.54
2023-01-21T09:54:33.573Z,9.45
2023-01-21T09:57:19.668Z,9.44
2023-01-21T10:00:08.296Z,9.47
2023-01-21T10:02:56.975Z,9.49
2023-01-21T10:05:24.118Z,9.50
2023-01-21T10:08:14.008Z,9.53
2023-01-21T10:10:59.894Z,9.72
2023-01-21T10:13:26.942Z,9.88
2023-01-21T10:16:13.007Z,10.08
2023-01-21T10:18:43.772Z,10.33
2023-01-21T10:21:30.405Z,10.56
2023-01-21T10:24:04.388Z,10.75
2023-01-21T10:26:34.102Z,10.94
2023-01-21T10:29:01.256Z,11.19
2023-01-21T10:31:38.733Z,11.45
2023-01-21T10:34:14.492Z,11.75
2023-01-21T10:36:41.332Z,11.96
2023-01-21T10:39:18.113Z,12.04
2023-01-21T10:42:04.005Z,11.96
2023-01-21T10:44:52.657Z,11.97
2023-01-21T10:47:44.432Z,11.98
2023-01-21T10:50:24.685Z,11.94
2023-01-21T10:53:12.072Z,12.04
2023-01-21T10:55:52.225Z,12.03
2023-01-21T10:58:31.562Z,11.93
2023-01-21T11:01:03.023Z,11.88
2023-01-21T11:03:38.351Z,11.88
2023-01-21T11:06:10.245Z,11.85
2023-01-21T11:08:39.225Z,11.90
2023-01-21T11:11:08.109Z,11.96
2023-01-21T11:13:35.460Z,12.03
2023-01-21T11:16:04.359Z,12.04
2023-01-21T11:18:37.029Z,12.04
2023-01-21T11:21:20.762Z,12.04
2023-01-21T11:24:17.620Z,11.92
2023-01-21T11:27:00.143Z,11.79
2023-01-21T11:29:39.430Z,11.68
2023-01-21T11:32:23.236Z,11.59
2023-01-21T11:35:00.296Z,11.50
2023-01-21T11:37:29.792Z,11.42
2023-01-21T11:40:20.718Z,11.46
2023-01-21T11:42:55.020Z,11.42
2023-01-21T11:45:36.448Z,11.35
2023-01-21T11:48:20.751Z,11.28
2023-01-21T11:50:48.024Z,11.18
2023-01-21T11:53:17.331Z,11.13
2023-01-21T11:55:51.311Z,11.12
2023-01-21T11:58:30.239Z,11.08
2023-01-21T12:01:21.046Z,11.08
2023-01-21T12:03:53.467Z,11.15
2023-01-21T12:06:25.202Z,11.21
2023-01-21T12:08:57.349Z,11.29
2023-01-21T12:11:27.407Z,11.36
2023-01-21T12:14:30.450Z,11.40
2023-01-21T12:17:21.504Z,11.34
2023-01-21T12:20:39.914Z,11.29
2023-01-21T12:23:18.844Z,11.27
2023-01-21T12:26:18.224Z,11.24
2023-01-21T12:29:18.562Z,11.25
2023-01-21T12:31:58.183Z,11.27
2023-01-21T12:34:28.748Z,11.29
2023-01-21T12:37:29.076Z,11.29
2023-01-21T12:39:59.337Z,11.27
2023-01-21T12:42:36.765Z,11.24
2023-01-21T12:45:13.680Z,11.23
2023-01-21T12:48:07.240Z,11.23
2023-01-21T12:50:41.972Z,11.17
2023-01-21T12:53:08.914Z,11.12
2023-01-21T12:55:39.141Z,11.09
2023-01-21T12:58:12.535Z,11.05
2023-01-21T13:00:45.497Z,11.00
2023-01-21T13:03:29.260Z,10.96
2023-01-21T13:06:10.032Z,10.93
2023-01-21T13:08:56.124Z,10.93
2023-01-21T13:11:26.800Z,10.95
2023-01-21T13:13:56.262Z,10.91
2023-01-21T13:16:26.031Z,10.82
2023-01-21T13:18:55.977Z,10.67
2023-01-21T13:21:32.161Z,10.53
2023-01-21T13:24:20.614Z,10.41
2023-01-21T13:26:55.773Z,10.38
2023-01-21T13:29:54.765Z,10.43
2023-01-21T13:32:43.491Z,10.46
2023-01-21T13:35:18.003Z,10.46
2023-01-21T13:38:00.727Z,10.40
2023-01-21T13:40:40.380Z,10.34
2023-01-21T13:43:43.671Z,10.26
2023-01-21T13:46:31.713Z,10.12
2023-01-21T13:48:58.761Z,10.00
2023-01-21T13:51:49.871Z,9.91
2023-01-21T13:54:53.789Z,9.83
2023-01-21T13:57:35.679Z,9.76
2023-01-21T14:00:09.819Z,9.70
2023-01-21T14:02:47.611Z,9.65
2023-01-21T14:05:30.108Z,9.61
2023-01-21T14:08:00.635Z,9.57
2023-01-21T14:10:42.351Z,9.53
2023-01-21T14:13:40.517Z,9.49
2023-01-21T14:16:13.268Z,9.44
2023-01-21T14:19:08.243Z,9.37
2023-01-21T14:21:43.121Z,9.32
2023-01-21T14:24:17.148Z,9.27
2023-01-21T14:26:50.161Z,9.21
2023-01-21T14:29:46.819Z,9.16
2023-01-21T14:32:22.729Z,9.11
2023-01-21T14:35:32.371Z,9.07
2023-01-21T14:37:59.208Z,9.05
2023-01-21T14:40:32.009Z,9.04
2023-01-21T14:42:59.369Z,9.02
2023-01-21T14:45:55.926Z,8.99
2023-01-21T14:48:41.977Z,8.96
2023-01-21T14:51:12.518Z,8.93
2023-01-21T14:53:51.734Z,8.89
2023-01-21T14:56:31.486Z,8.85
2023-01-21T14:59:10.416Z,8.80
2023-01-21T15:01:45.665Z,8.75
2023-01-21T15:04:22.432Z,8.70
2023-01-21T15:06:53.622Z,8.66
2023-01-21T15:10:00.173Z,8.63
2023-01-21T15:12:33.752Z,8.61
2023-01-21T15:15:16.083Z,8.60
2023-01-21T15:17:57.161Z,8.59
2023-01-21T15:20:39.710Z,8.57
2023-01-21T15:23:29.816Z,8.56
2023-01-21T15:26:08.760Z,8.55
2023-01-21T15:28:46.488Z,8.55
2023-01-21T15:31:41.037Z,8.56
2023-01-21T15:34:15.544Z,8.57
2023-01-21T15:36:49.728Z,8.56
2023-01-21T15:39:32.711Z,8.55
2023-01-21T15:42:25.973Z,8.53
2023-01-21T15:45:19.181Z,8.52
2023-01-21T15:47:55.703Z,8.54
2023-01-21T15:50:45.254Z,8.51
2023-01-21T15:53:40.698Z,8.48
2023-01-21T15:56:19.414Z,8.49
2023-01-21T15:59:08.069Z,8.51
2023-01-21T16:01:36.706Z,8.52
2023-01-21T16:04:11.197Z,8.54
2023-01-21T16:06:45.762Z,8.50
2023-01-21T16:09:35.603Z,8.49
2023-01-21T16:12:39.905Z,8.45
2023-01-21T16:15:40.892Z,8.40
2023-01-21T16:18:45.580Z,8.35
2023-01-21T16:21:13.962Z,8.31
2023-01-21T16:23:42.644Z,8.27
2023-01-21T16:26:09.799Z,8.21
2023-01-21T16:28:50.750Z,8.15
2023-01-21T16:31:17.689Z,8.07
2023-01-21T16:33:44.674Z,8.01
2023-01-21T16:36:13.603Z,7.97
2023-01-21T16:38:43.657Z,7.94
2023-01-21T16:41:11.047Z,7.92
2023-01-21T16:44:01.763Z,7.91
2023-01-21T16:46:40.760Z,7.93
2023-01-21T16:49:16.613Z,7.93
2023-01-21T16:51:52.233Z,7.92
2023-01-21T16:54:19.219Z,7.90
2023-01-21T16:56:57.546Z,7.89
2023-01-21T16:59:28.666Z,7.88
2023-01-21T17:01:57.968Z,7.86
2023-01-21T17:04:24.926Z,7.84
2023-01-21T17:06:53.391Z,7.81
2023-01-21T17:09:33.143Z,7.79
2023-01-21T17:12:09.240Z,7.77
2023-01-21T17:14:36.755Z,7.78
2023-01-21T17:17:06.979Z,7.78
2023-01-21T17:19:34.030Z,7.77
2023-01-21T17:22:11.417Z,7.79
2023-01-21T17:24:43.585Z,7.78
2023-01-21T17:27:17.244Z,7.79
2023-01-21T17:29:45.665Z,7.80
2023-01-21T17:32:21.934Z,7.82
2023-01-21T17:35:13.254Z,7.85
2023-01-21T17:37:51.769Z,7.89
2023-01-21T17:40:40.534Z,7.91
2023-01-21T17:43:22.333Z,7.94
2023-01-21T17:45:52.611Z,7.95
2023-01-21T17:48:28.556Z,7.95
2023-01-21T17:51:05.026Z,7.95
2023-01-21T17:53:32.445Z,7.95
2023-01-21T17:56:05.109Z,7.95
2023-01-21T17:58:35.488Z,7.93
2023-01-21T18:01:04.121Z,7.93
2023-01-21T18:03:31.689Z,7.93
2023-01-21T18:05:58.461Z,7.92
2023-01-21T18:08:26.382Z,7.91
2023-01-21T18:10:54.504Z,7.91
2023-01-21T18:13:23.401Z,7.91
2023-01-21T18:15:53.943Z,7.92
2023-01-21T18:18:28.607Z,7.94
2023-01-21T18:20:55.976Z,7.95
2023-01-21T18:23:23.378Z,7.97
2023-01-21T18:25:53.125Z,7.99
2023-01-21T18:28:25.605Z,8.01
2023-01-21T18:30:55.470Z,8.01
2023-01-21T18:33:23.487Z,8.02
2023-01-21T18:35:52.084Z,8.03
2023-01-21T18:38:26.521Z,8.05
2023-01-21T18:40:55.185Z,8.06
2023-01-21T18:43:25.978Z,8.07
2023-01-21T18:45:54.564Z,8.09
2023-01-21T18:48:27.940Z,8.12
2023-01-21T18:50:55.343Z,8.13
2023-01-21T18:53:22.669Z,8.16
2023-01-21T18:55:53.501Z,8.17
2023-01-21T18:58:21.122Z,8.17
2023-01-21T19:00:49.331Z,8.16
2023-01-21T19:03:18.081Z,8.14
2023-01-21T19:05:47.261Z,8.12
2023-01-21T19:08:21.528Z,8.09
2023-01-21T19:10:48.528Z,8.07
2023-01-21T19:13:16.609Z,8.04
2023-01-21T19:15:44.900Z,8.01
2023-01-21T19:18:15.921Z,8.01
2023-01-21T19:20:42.979Z,8.02
2023-01-21T19:23:16.473Z,8.04
2023-01-21T19:25:57.750Z,8.06
2023-01-21T19:28:25.063Z,8.11
2023-01-21T19:30:54.956Z,8.15
2023-01-21T19:33:22.580Z,8.21
2023-01-21T19:35:54.234Z,8.25
2023-01-21T19:38:21.553Z,8.31
2023-01-21T19:40:48.642Z,8.36
2023-01-21T19:43:17.266Z,8.40
2023-01-21T19:45:44.579Z,8.47
2023-01-21T19:48:14.801Z,8.52
2023-01-21T19:50:43.179Z,8.61
2023-01-21T19:53:14.729Z,8.70
2023-01-21T19:55:44.439Z,8.80
2023-01-21T19:58:18.922Z,8.87
2023-01-21T20:00:49.497Z,8.92
2023-01-21T20:03:18.404Z,8.96
2023-01-21T20:05:47.587Z,8.98
2023-01-21T20:08:24.360Z,9.00
2023-01-21T20:10:52.062Z,9.03
2023-01-21T20:13:19.375Z,9.07
2023-01-21T20:15:48.827Z,9.11
2023-01-21T20:18:24.223Z,9.14
2023-01-21T20:20:52.819Z,9.18
2023-01-21T20:23:21.800Z,9.21
2023-01-21T20:25:53.109Z,9.21
2023-01-21T20:28:44.262Z,9.21
2023-01-21T20:31:11.218Z,9.18
2023-01-21T20:33:38.782Z,9.16
2023-01-21T20:36:13.494Z,9.16
2023-01-21T20:38:41.671Z,9.16
2023-01-21T20:41:09.126Z,9.16
2023-01-21T20:43:36.276Z,9.16
2023-01-21T20:46:05.305Z,9.17
2023-01-21T20:48:36.274Z,9.17
2023-01-21T20:51:03.508Z,9.19
2023-01-21T20:53:30.916Z,9.18
2023-01-21T20:56:00.988Z,9.19
2023-01-21T20:58:28.649Z,9.19
2023-01-21T21:00:55.823Z,9.19
2023-01-21T21:03:22.598Z,9.17
2023-01-21T21:05:49.680Z,9.14
2023-01-21T21:08:18.326Z,9.12
2023-01-21T21:10:46.407Z,9.09
2023-01-21T21:13:13.962Z,9.06
2023-01-21T21:15:43.146Z,9.03
2023-01-21T21:18:13.283Z,9.02
2023-01-21T21:20:40.941Z,9.02
2023-01-21T21:23:13.522Z,9.02
2023-01-21T21:25:43.543Z,9.02
2023-01-21T21:28:13.141Z,9.04
2023-01-21T21:30:41.634Z,9.05
2023-01-21T21:33:16.356Z,9.07
2023-01-21T21:35:44.223Z,9.09
2023-01-21T21:38:14.647Z,9.08
2023-01-21T21:40:43.948Z,9.07
2023-01-21T21:43:38.235Z,9.06
2023-01-21T21:46:28.033Z,9.05
2023-01-21T21:48:55.063Z,9.03
2023-01-21T21:51:22.804Z,9.03
2023-01-21T21:53:50.797Z,9.02
2023-01-21T21:56:23.210Z,9.03
2023-01-21T21:58:50.832Z,9.05
2023-01-21T22:01:19.268Z,9.07
2023-01-21T22:03:46.564Z,9.09
2023-01-21T22:06:16.282Z,9.11
2023-01-21T22:08:44.249Z,9.12
2023-01-21T22:11:17.916Z,9.12
2023-01-21T22:13:50.056Z,9.11
2023-01-21T22:16:26.439Z,9.09
2023-01-21T22:18:56.165Z,9.07
2023-01-21T22:21:26.362Z,9.04
2023-01-21T22:23:54.356Z,9.02
2023-01-21T22:26:23.777Z,9.01
2023-01-21T22:28:51.555Z,8.99
2023-01-21T22:31:24.473Z,8.98
2023-01-21T22:33:52.339Z,8.98
2023-01-21T22:36:22.222Z,8.98
2023-01-21T22:38:49.990Z,8.99
2023-01-21T22:41:19.335Z,9.00
2023-01-21T22:43:50.147Z,9.02
2023-01-21T22:46:23.461Z,9.04
2023-01-21T22:48:51.093Z,9.05
2023-01-21T22:51:19.035Z,9.05
2023-01-21T22:53:46.144Z,9.05
2023-01-21T22:56:15.263Z,9.05
2023-01-21T22:58:43.126Z,9.04
2023-01-21T23:01:40.177Z,9.04
2023-01-21T23:04:08.595Z,9.04
2023-01-21T23:06:37.694Z,9.02
2023-01-21T23:09:05.707Z,9.01
2023-01-21T23:11:35.575Z,9.00
2023-01-21T23:14:02.418Z,8.98
2023-01-21T23:16:29.571Z,8.96
2023-01-21T23:18:57.337Z,8.96
2023-01-21T23:21:24.143Z,8.98
2023-01-21T23:23:51.484Z,8.96
2023-01-21T23:26:22.163Z,8.92
2023-01-21T23:28:53.306Z,8.90
2023-01-21T23:31:20.290Z,8.86
2023-01-21T23:33:51.708Z,8.82
2023-01-21T23:36:19.366Z,8.78
2023-01-21T23:38:46.712Z,8.75
2023-01-21T23:41:16.432Z,8.73
2023-01-21T23:43:43.480Z,8.71
2023-01-21T23:46:15.689Z,8.71
2023-01-21T23:48:43.148Z,8.71
2023-01-21T23:51:13.291Z,8.71
2023-01-21T23:53:40.385Z,8.73
2023-01-21T23:56:13.883Z,8.74
2023-01-21T23:58:41.023Z,8.77
